SHT5Q EGAC-EGLL
Flight info
| Callsign | SHT5Q |
|---|---|
| Flight time | 0h 48m |
| Altitude | 33000 |
| Route | DUFFY L10 RINGA Q39 ETIGA DCT INKOB Q39 NOMSU UQ4 WAL UY53 NUGRA |
| Aircraft | A320/M-SDE3FGHIJ1RWXY/SB1 |
Departure
| Time | 2026-05-04 21:03 |
|---|---|
| Airport | George Best Belfast City Airport (EGAC) |
Arrival
| Time | 2026-05-04 21:51 |
|---|---|
| Airport | London Heathrow Airport (EGLL) |
| Time | Latitude | Longitude | Altitude | Speed | Heading |
|---|---|---|---|---|---|
| 2026-05-04 20:32 | 54.61463 | -5.87188 | 22 ft | 0 kts | 154° |
| 2026-05-04 20:33 | 54.61462 | -5.87188 | 22 ft | 0 kts | 154° |
| 2026-05-04 20:46 | 54.61463 | -5.87188 | -6 ft | 0 kts | 154° |
| 2026-05-04 20:55 | 54.61474 | -5.87198 | 21 ft | 4 kts | 155° |
| 2026-05-04 20:55 | 54.61494 | -5.87214 | 24 ft | 4 kts | 159° |
| 2026-05-04 20:56 | 54.61520 | -5.87223 | 21 ft | 4 kts | 188° |
| 2026-05-04 20:56 | 54.61543 | -5.87209 | 22 ft | 2 kts | 215° |
| 2026-05-04 20:56 | 54.61547 | -5.87204 | 26 ft | 0 kts | 215° |
| 2026-05-04 20:58 | 54.61537 | -5.87216 | 23 ft | 4 kts | 215° |
| 2026-05-04 20:59 | 54.61509 | -5.87251 | 23 ft | 6 kts | 215° |
| 2026-05-04 20:59 | 54.61468 | -5.87301 | 21 ft | 8 kts | 215° |
| 2026-05-04 20:59 | 54.61418 | -5.87369 | 21 ft | 10 kts | 225° |
| 2026-05-04 20:59 | 54.61362 | -5.87472 | 21 ft | 13 kts | 214° |
| 2026-05-04 21:00 | 54.61279 | -5.87571 | 18 ft | 13 kts | 215° |
| 2026-05-04 21:00 | 54.61206 | -5.87659 | 16 ft | 14 kts | 214° |
| 2026-05-04 21:00 | 54.61129 | -5.87749 | 18 ft | 8 kts | 215° |
| 2026-05-04 21:00 | 54.61092 | -5.87803 | 19 ft | 6 kts | 234° |
| 2026-05-04 21:01 | 54.61087 | -5.87819 | 19 ft | 1 kts | 245° |
| 2026-05-04 21:01 | 54.61085 | -5.87836 | 18 ft | 0 kts | 257° |
| 2026-05-04 21:01 | 54.61084 | -5.87855 | 20 ft | 4 kts | 265° |
| 2026-05-04 21:01 | 54.61105 | -5.87951 | 18 ft | 12 kts | 303° |
| 2026-05-04 21:02 | 54.61173 | -5.88008 | 18 ft | 12 kts | 19° |
| 2026-05-04 21:02 | 54.61264 | -5.87904 | 16 ft | 30 kts | 34° |
| 2026-05-04 21:02 | 54.61686 | -5.87401 | 19 ft | 112 kts | 34° |
| 2026-05-04 21:02 | 54.62468 | -5.86469 | 316 ft | 138 kts | 33° |
| 2026-05-04 21:03 | 54.63243 | -5.85544 | 1026 ft | 138 kts | 32° |
| 2026-05-04 21:03 | 54.64067 | -5.84562 | 1483 ft | 153 kts | 31° |
| 2026-05-04 21:03 | 54.65006 | -5.83429 | 1629 ft | 177 kts | 31° |
| 2026-05-04 21:03 | 54.66099 | -5.82109 | 1786 ft | 205 kts | 31° |
| 2026-05-04 21:04 | 54.67338 | -5.80611 | 2123 ft | 229 kts | 31° |
| 2026-05-04 21:04 | 54.68617 | -5.78740 | 2593 ft | 254 kts | 50° |
| 2026-05-04 21:04 | 54.69295 | -5.75870 | 3381 ft | 268 kts | 83° |
| 2026-05-04 21:04 | 54.68981 | -5.72693 | 4214 ft | 276 kts | 118° |
| 2026-05-04 21:05 | 54.67684 | -5.70289 | 5085 ft | 277 kts | 153° |
| 2026-05-04 21:05 | 54.65874 | -5.69168 | 5961 ft | 278 kts | 166° |
| 2026-05-04 21:05 | 54.63998 | -5.68286 | 6836 ft | 281 kts | 167° |
| 2026-05-04 21:05 | 54.62094 | -5.67418 | 7639 ft | 285 kts | 167° |
| 2026-05-04 21:06 | 54.60168 | -5.66546 | 8456 ft | 288 kts | 167° |
| 2026-05-04 21:06 | 54.58217 | -5.65655 | 9271 ft | 292 kts | 167° |
| 2026-05-04 21:06 | 54.56244 | -5.64744 | 10070 ft | 295 kts | 167° |
| 2026-05-04 21:06 | 54.54217 | -5.63804 | 10490 ft | 312 kts | 167° |
| 2026-05-04 21:07 | 54.52040 | -5.62793 | 10672 ft | 335 kts | 166° |
| 2026-05-04 21:07 | 54.49739 | -5.61721 | 11108 ft | 347 kts | 166° |
| 2026-05-04 21:07 | 54.47395 | -5.60627 | 11766 ft | 351 kts | 166° |
| 2026-05-04 21:07 | 54.45030 | -5.59521 | 12447 ft | 354 kts | 166° |
| 2026-05-04 21:08 | 54.42670 | -5.58233 | 13129 ft | 358 kts | 158° |
| 2026-05-04 21:08 | 54.40467 | -5.56186 | 13821 ft | 363 kts | 146° |
| 2026-05-04 21:08 | 54.38526 | -5.53374 | 14442 ft | 368 kts | 134° |
| 2026-05-04 21:08 | 54.36929 | -5.49919 | 15046 ft | 372 kts | 125° |
| 2026-05-04 21:09 | 54.35461 | -5.46268 | 15651 ft | 374 kts | 125° |
| 2026-05-04 21:09 | 54.33968 | -5.42579 | 16229 ft | 377 kts | 125° |
| 2026-05-04 21:09 | 54.32463 | -5.38883 | 16831 ft | 380 kts | 126° |
| 2026-05-04 21:09 | 54.30941 | -5.35161 | 17436 ft | 382 kts | 126° |
| 2026-05-04 21:10 | 54.29411 | -5.31425 | 18039 ft | 385 kts | 126° |
| 2026-05-04 21:10 | 54.27863 | -5.27651 | 18612 ft | 389 kts | 126° |
| 2026-05-04 21:10 | 54.26237 | -5.23927 | 19151 ft | 392 kts | 128° |
| 2026-05-04 21:10 | 54.24551 | -5.20327 | 19689 ft | 395 kts | 130° |
| 2026-05-04 21:11 | 54.22784 | -5.16714 | 20240 ft | 398 kts | 130° |
| 2026-05-04 21:11 | 54.20985 | -5.13095 | 20777 ft | 401 kts | 130° |
| 2026-05-04 21:11 | 54.19175 | -5.09445 | 21302 ft | 405 kts | 130° |
| 2026-05-04 21:11 | 54.17358 | -5.05749 | 21792 ft | 408 kts | 130° |
| 2026-05-04 21:12 | 54.15538 | -5.02013 | 22288 ft | 411 kts | 130° |
| 2026-05-04 21:12 | 54.13709 | -4.98233 | 22773 ft | 414 kts | 129° |
| 2026-05-04 21:12 | 54.11874 | -4.94434 | 23262 ft | 417 kts | 129° |
| 2026-05-04 21:12 | 54.10022 | -4.90601 | 23726 ft | 420 kts | 129° |
| 2026-05-04 21:13 | 54.08157 | -4.86751 | 24118 ft | 423 kts | 129° |
| 2026-05-04 21:13 | 54.06275 | -4.82880 | 24513 ft | 425 kts | 129° |
| 2026-05-04 21:13 | 54.04383 | -4.78999 | 24907 ft | 427 kts | 129° |
| 2026-05-04 21:13 | 54.02517 | -4.75045 | 25296 ft | 429 kts | 128° |
| 2026-05-04 21:14 | 54.00698 | -4.71004 | 25673 ft | 432 kts | 126° |
| 2026-05-04 21:14 | 53.98897 | -4.66892 | 26044 ft | 434 kts | 126° |
| 2026-05-04 21:14 | 53.97102 | -4.62764 | 26406 ft | 436 kts | 126° |
| 2026-05-04 21:14 | 53.95293 | -4.58625 | 26776 ft | 438 kts | 126° |
| 2026-05-04 21:15 | 53.93460 | -4.54482 | 27129 ft | 440 kts | 126° |
| 2026-05-04 21:15 | 53.91606 | -4.50337 | 27486 ft | 442 kts | 127° |
| 2026-05-04 21:15 | 53.89738 | -4.46198 | 27837 ft | 444 kts | 127° |
| 2026-05-04 21:15 | 53.87846 | -4.42027 | 28197 ft | 446 kts | 127° |
| 2026-05-04 21:16 | 53.85967 | -4.37824 | 28554 ft | 448 kts | 126° |
| 2026-05-04 21:16 | 53.84149 | -4.33522 | 28888 ft | 450 kts | 124° |
| 2026-05-04 21:16 | 53.82379 | -4.29147 | 29230 ft | 452 kts | 123° |
| 2026-05-04 21:16 | 53.80624 | -4.24724 | 29624 ft | 452 kts | 123° |
| 2026-05-04 21:17 | 53.78876 | -4.20321 | 30122 ft | 450 kts | 123° |
| 2026-05-04 21:17 | 53.77141 | -4.16009 | 30546 ft | 449 kts | 123° |
| 2026-05-04 21:17 | 53.75369 | -4.11672 | 30976 ft | 447 kts | 123° |
| 2026-05-04 21:17 | 53.73571 | -4.07315 | 31412 ft | 446 kts | 124° |
| 2026-05-04 21:18 | 53.71815 | -4.03085 | 31836 ft | 445 kts | 124° |
| 2026-05-04 21:18 | 53.70014 | -3.98764 | 32276 ft | 443 kts | 124° |
| 2026-05-04 21:18 | 53.68243 | -3.94517 | 32706 ft | 442 kts | 124° |
| 2026-05-04 21:18 | 53.66504 | -3.90334 | 33026 ft | 442 kts | 123° |
| 2026-05-04 21:19 | 53.62958 | -3.81803 | 33090 ft | 445 kts | 123° |
| 2026-05-04 21:19 | 53.59403 | -3.73290 | 33089 ft | 445 kts | 123° |
| 2026-05-04 21:20 | 53.55844 | -3.64797 | 33087 ft | 444 kts | 123° |
| 2026-05-04 21:20 | 53.52281 | -3.56329 | 33092 ft | 443 kts | 123° |
| 2026-05-04 21:21 | 53.48721 | -3.47897 | 33093 ft | 442 kts | 123° |
| 2026-05-04 21:21 | 53.45690 | -3.38980 | 33092 ft | 439 kts | 111° |
| 2026-05-04 21:22 | 53.43311 | -3.29561 | 33096 ft | 438 kts | 111° |
| 2026-05-04 21:22 | 53.40916 | -3.20165 | 33097 ft | 438 kts | 111° |
| 2026-05-04 21:23 | 53.38147 | -3.11092 | 33096 ft | 440 kts | 123° |
| 2026-05-04 21:23 | 53.34485 | -3.02855 | 33097 ft | 440 kts | 124° |
| 2026-05-04 21:24 | 53.30820 | -2.94648 | 33103 ft | 440 kts | 124° |
| 2026-05-04 21:24 | 53.27158 | -2.86463 | 33104 ft | 440 kts | 124° |
| 2026-05-04 21:25 | 53.23495 | -2.78291 | 33105 ft | 439 kts | 124° |
| 2026-05-04 21:25 | 53.19846 | -2.70176 | 33102 ft | 439 kts | 124° |
| 2026-05-04 21:26 | 53.16177 | -2.62051 | 33105 ft | 438 kts | 124° |
| 2026-05-04 21:26 | 53.12558 | -2.54015 | 33099 ft | 437 kts | 123° |
| 2026-05-04 21:27 | 53.09116 | -2.45692 | 33097 ft | 436 kts | 121° |
| 2026-05-04 21:27 | 53.05767 | -2.37298 | 33094 ft | 435 kts | 121° |
| 2026-05-04 21:28 | 53.01874 | -2.29604 | 32776 ft | 439 kts | 137° |
| 2026-05-04 21:28 | 52.99398 | -2.26605 | 32511 ft | 441 kts | 146° |
| 2026-05-04 21:28 | 52.96786 | -2.23911 | 32250 ft | 442 kts | 146° |
| 2026-05-04 21:29 | 52.94191 | -2.21212 | 31992 ft | 442 kts | 146° |
| 2026-05-04 21:29 | 52.91588 | -2.18485 | 31731 ft | 442 kts | 146° |
| 2026-05-04 21:29 | 52.88994 | -2.15754 | 31475 ft | 441 kts | 146° |
| 2026-05-04 21:29 | 52.86439 | -2.13064 | 31223 ft | 440 kts | 146° |
| 2026-05-04 21:30 | 52.83861 | -2.10359 | 30968 ft | 438 kts | 146° |
| 2026-05-04 21:30 | 52.81290 | -2.07676 | 30732 ft | 436 kts | 147° |
| 2026-05-04 21:30 | 52.78729 | -2.05014 | 30486 ft | 434 kts | 147° |
| 2026-05-04 21:30 | 52.76174 | -2.02366 | 30231 ft | 432 kts | 147° |
| 2026-05-04 21:31 | 52.71112 | -1.97128 | 29677 ft | 428 kts | 148° |
| 2026-05-04 21:31 | 52.68600 | -1.94524 | 29381 ft | 426 kts | 148° |
| 2026-05-04 21:31 | 52.66097 | -1.91931 | 29087 ft | 424 kts | 149° |
| 2026-05-04 21:32 | 52.63609 | -1.89359 | 28832 ft | 422 kts | 149° |
| 2026-05-04 21:32 | 52.61135 | -1.86812 | 28464 ft | 417 kts | 149° |
| 2026-05-04 21:32 | 52.58690 | -1.84302 | 27912 ft | 413 kts | 149° |
| 2026-05-04 21:32 | 52.57074 | -1.82645 | 27558 ft | 411 kts | 149° |
| 2026-05-04 21:33 | 52.53850 | -1.79345 | 26840 ft | 406 kts | 150° |
| 2026-05-04 21:33 | 52.52266 | -1.77727 | 26488 ft | 404 kts | 150° |
| 2026-05-04 21:33 | 52.49885 | -1.75296 | 25960 ft | 402 kts | 150° |
| 2026-05-04 21:33 | 52.47517 | -1.72875 | 25461 ft | 399 kts | 150° |
| 2026-05-04 21:34 | 52.45175 | -1.70482 | 24958 ft | 398 kts | 151° |
| 2026-05-04 21:34 | 52.42821 | -1.68085 | 24468 ft | 396 kts | 151° |
| 2026-05-04 21:34 | 52.40489 | -1.65710 | 23981 ft | 394 kts | 151° |
| 2026-05-04 21:34 | 52.38166 | -1.63348 | 23492 ft | 392 kts | 151° |
| 2026-05-04 21:35 | 52.35857 | -1.60998 | 23006 ft | 389 kts | 151° |
| 2026-05-04 21:35 | 52.33565 | -1.58665 | 22545 ft | 387 kts | 151° |
| 2026-05-04 21:35 | 52.31288 | -1.56350 | 22072 ft | 384 kts | 151° |
| 2026-05-04 21:35 | 52.29026 | -1.54064 | 21608 ft | 382 kts | 150° |
| 2026-05-04 21:36 | 52.26769 | -1.51792 | 21137 ft | 379 kts | 150° |
| 2026-05-04 21:36 | 52.24535 | -1.49544 | 20662 ft | 377 kts | 150° |
| 2026-05-04 21:36 | 52.22314 | -1.47300 | 20193 ft | 375 kts | 149° |
| 2026-05-04 21:36 | 52.20256 | -1.44691 | 19764 ft | 373 kts | 141° |
| 2026-05-04 21:37 | 52.18297 | -1.41936 | 19402 ft | 370 kts | 141° |
| 2026-05-04 21:37 | 52.16355 | -1.39217 | 19023 ft | 368 kts | 141° |
| 2026-05-04 21:37 | 52.14414 | -1.36509 | 18658 ft | 366 kts | 141° |
| 2026-05-04 21:37 | 52.12482 | -1.33819 | 18268 ft | 364 kts | 141° |
| 2026-05-04 21:38 | 52.10565 | -1.31150 | 17882 ft | 362 kts | 141° |
| 2026-05-04 21:38 | 52.08657 | -1.28496 | 17508 ft | 361 kts | 141° |
| 2026-05-04 21:38 | 52.06756 | -1.25858 | 17149 ft | 359 kts | 141° |
| 2026-05-04 21:38 | 52.04857 | -1.23226 | 16783 ft | 357 kts | 141° |
| 2026-05-04 21:39 | 52.02968 | -1.20608 | 16412 ft | 356 kts | 140° |
| 2026-05-04 21:39 | 52.01111 | -1.18042 | 16068 ft | 354 kts | 141° |
| 2026-05-04 21:39 | 51.99239 | -1.15459 | 15705 ft | 353 kts | 140° |
| 2026-05-04 21:39 | 51.97371 | -1.12877 | 15342 ft | 352 kts | 140° |
| 2026-05-04 21:40 | 51.95524 | -1.10325 | 14991 ft | 350 kts | 140° |
| 2026-05-04 21:40 | 51.93619 | -1.07776 | 14169 ft | 358 kts | 146° |
| 2026-05-04 21:40 | 51.91386 | -1.06033 | 13652 ft | 355 kts | 160° |
| 2026-05-04 21:40 | 51.89076 | -1.04657 | 13145 ft | 352 kts | 161° |
| 2026-05-04 21:41 | 51.86770 | -1.03427 | 12649 ft | 348 kts | 165° |
| 2026-05-04 21:41 | 51.84443 | -1.02402 | 12158 ft | 345 kts | 166° |
| 2026-05-04 21:41 | 51.82139 | -1.01406 | 11678 ft | 342 kts | 166° |
| 2026-05-04 21:41 | 51.79851 | -1.00417 | 11201 ft | 339 kts | 166° |
| 2026-05-04 21:42 | 51.77584 | -0.99435 | 10735 ft | 336 kts | 166° |
| 2026-05-04 21:42 | 51.75323 | -0.98454 | 10281 ft | 334 kts | 166° |
| 2026-05-04 21:42 | 51.73090 | -0.97481 | 9799 ft | 330 kts | 166° |
| 2026-05-04 21:42 | 51.70922 | -0.96534 | 9285 ft | 316 kts | 166° |
| 2026-05-04 21:43 | 51.68842 | -0.95623 | 8791 ft | 304 kts | 166° |
| 2026-05-04 21:43 | 51.66839 | -0.94745 | 8298 ft | 294 kts | 166° |
| 2026-05-04 21:43 | 51.64898 | -0.93895 | 7819 ft | 285 kts | 166° |
| 2026-05-04 21:43 | 51.63005 | -0.93065 | 7342 ft | 279 kts | 166° |
| 2026-05-04 21:44 | 51.61149 | -0.92252 | 6872 ft | 273 kts | 166° |
| 2026-05-04 21:44 | 51.59338 | -0.91459 | 6408 ft | 268 kts | 166° |
| 2026-05-04 21:44 | 51.57556 | -0.90680 | 5917 ft | 263 kts | 166° |
| 2026-05-04 21:44 | 51.55818 | -0.89930 | 5576 ft | 253 kts | 166° |
| 2026-05-04 21:45 | 51.54151 | -0.89222 | 5264 ft | 243 kts | 166° |
| 2026-05-04 21:45 | 51.52530 | -0.88542 | 5025 ft | 241 kts | 166° |
| 2026-05-04 21:45 | 51.50914 | -0.87863 | 4809 ft | 239 kts | 162° |
| 2026-05-04 21:45 | 51.49447 | -0.86675 | 4680 ft | 235 kts | 142° |
| 2026-05-04 21:46 | 51.48345 | -0.84807 | 4486 ft | 227 kts | 122° |
| 2026-05-04 21:46 | 51.47712 | -0.82536 | 4268 ft | 221 kts | 102° |
| 2026-05-04 21:46 | 51.47572 | -0.80111 | 3999 ft | 218 kts | 88° |
| 2026-05-04 21:46 | 51.47590 | -0.77685 | 3714 ft | 217 kts | 88° |
| 2026-05-04 21:47 | 51.47608 | -0.75263 | 3419 ft | 215 kts | 88° |
| 2026-05-04 21:47 | 51.47623 | -0.72913 | 3134 ft | 206 kts | 88° |
| 2026-05-04 21:47 | 51.47636 | -0.70675 | 2877 ft | 195 kts | 88° |
| 2026-05-04 21:47 | 51.47649 | -0.68565 | 2623 ft | 184 kts | 88° |
| 2026-05-04 21:48 | 51.47660 | -0.66564 | 2360 ft | 174 kts | 88° |
| 2026-05-04 21:48 | 51.47671 | -0.64675 | 2139 ft | 165 kts | 88° |
| 2026-05-04 21:48 | 51.47681 | -0.62844 | 1913 ft | 162 kts | 88° |
| 2026-05-04 21:48 | 51.47690 | -0.61073 | 1693 ft | 159 kts | 88° |
| 2026-05-04 21:49 | 51.47698 | -0.59350 | 1490 ft | 146 kts | 88° |
| 2026-05-04 21:49 | 51.47706 | -0.57769 | 1292 ft | 139 kts | 87° |
| 2026-05-04 21:49 | 51.47713 | -0.56244 | 1100 ft | 136 kts | 87° |
| 2026-05-04 21:49 | 51.47721 | -0.54724 | 910 ft | 136 kts | 87° |
| 2026-05-04 21:50 | 51.47733 | -0.53211 | 676 ft | 136 kts | 86° |
| 2026-05-04 21:50 | 51.47735 | -0.51687 | 495 ft | 136 kts | 87° |
| 2026-05-04 21:50 | 51.47735 | -0.50167 | 322 ft | 136 kts | 86° |
| 2026-05-04 21:50 | 51.47746 | -0.48653 | 153 ft | 135 kts | 86° |
| 2026-05-04 21:51 | 51.47756 | -0.47202 | 89 ft | 115 kts | 90° |
| 2026-05-04 21:51 | 51.47761 | -0.46294 | 88 ft | 39 kts | 88° |
| 2026-05-04 21:51 | 51.47668 | -0.46097 | 86 ft | 10 kts | 161° |
| 2026-05-04 21:51 | 51.47601 | -0.46104 | 88 ft | 11 kts | 229° |
| 2026-05-04 21:52 | 51.47594 | -0.46234 | 87 ft | 13 kts | 270° |
| 2026-05-04 21:52 | 51.47593 | -0.46392 | 87 ft | 15 kts | 269° |
| 2026-05-04 21:52 | 51.47592 | -0.46576 | 87 ft | 18 kts | 270° |
| 2026-05-04 21:52 | 51.47590 | -0.46790 | 87 ft | 20 kts | 267° |
| 2026-05-04 21:53 | 51.47582 | -0.47031 | 91 ft | 23 kts | 269° |
| 2026-05-04 21:53 | 51.47582 | -0.47302 | 89 ft | 26 kts | 269° |
| 2026-05-04 21:53 | 51.47581 | -0.47596 | 90 ft | 28 kts | 270° |
| 2026-05-04 21:53 | 51.47580 | -0.47846 | 90 ft | 21 kts | 270° |
| 2026-05-04 21:54 | 51.47579 | -0.48086 | 89 ft | 23 kts | 270° |
| 2026-05-04 21:54 | 51.47577 | -0.48351 | 87 ft | 22 kts | 269° |
| 2026-05-04 21:54 | 51.47564 | -0.48469 | 91 ft | 9 kts | 216° |
| 2026-05-04 21:54 | 51.47500 | -0.48495 | 90 ft | 11 kts | 219° |
| 2026-05-04 21:55 | 51.47487 | -0.48616 | 88 ft | 13 kts | 270° |
| 2026-05-04 21:55 | 51.47486 | -0.48769 | 90 ft | 14 kts | 270° |
| 2026-05-04 21:55 | 51.47486 | -0.48843 | 88 ft | 1 kts | 271° |
| 2026-05-04 21:55 | 51.47487 | -0.48865 | 89 ft | 3 kts | 274° |
| 2026-05-04 21:56 | 51.47477 | -0.48890 | 89 ft | 3 kts | 193° |
| 2026-05-04 21:56 | 51.47444 | -0.48894 | 87 ft | 6 kts | 180° |
| 2026-05-04 21:56 | 51.47407 | -0.48894 | 87 ft | 2 kts | 179° |
| 2026-05-04 21:56 | 51.47404 | -0.48894 | 87 ft | 0 kts | 179° |